Time;durP1;ratioP1;P1;durP2;ratioP2;P2;SDS_P1;SDS_P2;PMS_P1;PMS_P2;Temp;Humidity;BMP_temperature;BMP_pressure;BME280_temperature;BME280_humidity;BME280_pressure;Samples;Min_cycle;Max_cycle;Signal;HPM_P1;HPM_P2
2023/05/15 00:01:47;;;;;;;22.05;15.23;;;;;;;;;;5072608;28;20491;-65
2023/05/15 00:04:13;;;;;;;18.65;14.50;;;;;;;;;;5072553;28;20067;-65
2023/05/15 00:06:40;;;;;;;16.23;14.00;;;;;;;;;;5072636;28;20049;-65
2023/05/15 00:09:07;;;;;;;19.45;14.43;;;;;;;;;;5072922;28;20080;-65
2023/05/15 00:11:33;;;;;;;16.73;14.45;;;;;;;;;;5072443;28;20045;-65
2023/05/15 00:14:00;;;;;;;17.60;14.05;;;;;;;;;;5072476;28;20083;-65
2023/05/15 00:16:26;;;;;;;18.63;15.85;;;;;;;;;;5071891;28;20051;-65
2023/05/15 00:18:53;;;;;;;20.02;15.63;;;;;;;;;;5072124;28;20051;-65
2023/05/15 00:21:19;;;;;;;19.40;15.40;;;;;;;;;;5072469;28;20048;-65
2023/05/15 00:23:46;;;;;;;19.50;15.60;;;;;;;;;;5072575;28;20044;-65
2023/05/15 00:26:14;;;;;;;19.58;14.93;;;;;;;;;;5072218;28;20058;-65
2023/05/15 00:28:41;;;;;;;19.17;14.93;;;;;;;;;;5072466;28;20083;-65
2023/05/15 00:31:07;;;;;;;19.50;15.95;;;;;;;;;;5072215;28;20575;-65
2023/05/15 00:33:34;;;;;;;20.23;17.27;;;;;;;;;;5072424;28;20110;-65
2023/05/15 00:36:00;;;;;;;19.65;16.00;;;;;;;;;;5071975;28;20044;-64
2023/05/15 00:38:27;;;;;;;18.02;14.75;;;;;;;;;;5072127;28;20045;-65
2023/05/15 00:40:54;;;;;;;18.17;12.70;;;;;;;;;;5072120;28;20349;-64
2023/05/15 00:43:21;;;;;;;16.92;12.93;;;;;;;;;;5072230;28;20078;-65
2023/05/15 00:45:49;;;;;;;13.57;9.95;;;;;;;;;;5072098;28;20088;-64
2023/05/15 00:48:15;;;;;;;11.07;7.40;;;;;;;;;;5071910;28;20037;-65
2023/05/15 00:50:42;;;;;;;7.32;6.47;;;;;;;;;;5071291;28;20059;-65
2023/05/15 00:53:09;;;;;;;10.00;5.88;;;;;;;;;;5071807;28;20139;-65
2023/05/15 00:55:36;;;;;;;5.63;5.07;;;;;;;;;;5071735;28;20524;-65
2023/05/15 00:58:02;;;;;;;9.23;6.68;;;;;;;;;;5071930;28;20048;-65
2023/05/15 01:00:30;;;;;;;8.90;5.15;;;;;;;;;;5071830;28;20054;-64
2023/05/15 01:02:56;;;;;;;7.47;4.75;;;;;;;;;;5070309;28;20048;-64
2023/05/15 01:05:23;;;;;;;6.60;5.10;;;;;;;;;;5071390;28;20381;-65
2023/05/15 01:08:10;;;;;;;5.97;3.85;;;;;;;;;;5071616;28;20132;-65
2023/05/15 01:10:36;;;;;;;4.77;3.00;;;;;;;;;;5071481;28;20060;-64
2023/05/15 01:13:03;;;;;;;3.42;2.50;;;;;;;;;;5071672;28;20335;-65
2023/05/15 01:15:30;;;;;;;2.95;2.10;;;;;;;;;;5071806;28;20381;-64
2023/05/15 01:17:56;;;;;;;4.85;2.03;;;;;;;;;;5071473;28;20533;-65
2023/05/15 01:20:23;;;;;;;3.35;1.67;;;;;;;;;;5071320;28;20131;-65
2023/05/15 01:22:57;;;;;;;4.68;1.70;;;;;;;;;;5071488;28;20495;-64
2023/05/15 01:25:34;;;;;;;3.10;1.40;;;;;;;;;;5071802;28;20054;-64
2023/05/15 01:28:04;;;;;;;5.25;1.80;;;;;;;;;;5071852;28;20049;-64
2023/05/15 01:30:35;;;;;;;3.90;1.42;;;;;;;;;;5071412;28;20048;-64
2023/05/15 01:33:04;;;;;;;3.20;1.40;;;;;;;;;;5071433;28;20080;-64
2023/05/15 01:35:42;;;;;;;2.55;1.33;;;;;;;;;;5071268;28;20048;-64
2023/05/15 01:38:14;;;;;;;2.80;1.38;;;;;;;;;;5071344;28;20052;-64
2023/05/15 01:40:41;;;;;;;3.78;1.35;;;;;;;;;;5071552;28;20049;-65
2023/05/15 01:43:08;;;;;;;4.13;1.43;;;;;;;;;;5071274;28;20511;-65
2023/05/15 01:45:36;;;;;;;2.88;1.40;;;;;;;;;;5071505;28;20136;-65
2023/05/15 01:48:04;;;;;;;2.67;1.40;;;;;;;;;;5071409;28;20048;-65
2023/05/15 01:50:31;;;;;;;4.15;1.73;;;;;;;;;;5071218;28;20056;-65
2023/05/15 01:52:59;;;;;;;2.28;1.35;;;;;;;;;;5071269;28;20049;-65
2023/05/15 01:55:26;;;;;;;3.45;1.35;;;;;;;;;;5071457;28;20048;-64
2023/05/15 01:57:54;;;;;;;3.35;1.38;;;;;;;;;;5071119;28;20504;-64
2023/05/15 02:00:20;;;;;;;;;;;;;;;;;;5071503;28;20480;-64
2023/05/15 02:02:48;;;;;;;4.38;1.42;;;;;;;;;;5073916;28;19950;-65
2023/05/15 02:05:15;;;;;;;3.35;1.58;;;;;;;;;;5074755;28;20044;-65
2023/05/15 02:07:42;;;;;;;3.25;1.40;;;;;;;;;;5075245;28;20234;-64
2023/05/15 02:10:10;;;;;;;2.35;1.30;;;;;;;;;;5074863;28;20053;-65
2023/05/15 02:12:36;;;;;;;;;;;;;;;;;;5075221;28;20571;-65
2023/05/15 02:15:03;;;;;;;3.45;1.30;;;;;;;;;;5074978;28;19943;-65
2023/05/15 02:17:29;;;;;;;4.32;1.73;;;;;;;;;;5074909;28;20055;-65
2023/05/15 02:19:56;;;;;;;3.78;1.25;;;;;;;;;;5074914;28;20076;-65
2023/05/15 02:22:22;;;;;;;4.03;1.38;;;;;;;;;;5074902;28;20044;-64
2023/05/15 02:24:49;;;;;;;4.28;1.90;;;;;;;;;;5074902;28;20044;-64
2023/05/15 02:27:15;;;;;;;6.28;1.52;;;;;;;;;;5074496;28;20464;-65
2023/05/15 02:29:53;;;;;;;3.75;1.35;;;;;;;;;;5074505;28;20518;-64
2023/05/15 02:32:29;;;;;;;2.83;1.60;;;;;;;;;;5074670;28;20067;-65
2023/05/15 02:35:01;;;;;;;2.65;1.25;;;;;;;;;;5074502;28;20083;-64
2023/05/15 02:37:30;;;;;;;3.47;1.35;;;;;;;;;;5074532;28;20044;-65
2023/05/15 02:39:58;;;;;;;3.03;1.50;;;;;;;;;;5074480;28;20412;-65
2023/05/15 02:42:25;;;;;;;2.95;0.98;;;;;;;;;;5074618;28;20463;-64
2023/05/15 02:44:53;;;;;;;3.17;1.20;;;;;;;;;;5074195;28;20595;-64
2023/05/15 02:47:19;;;;;;;;;;;;;;;;;;5074984;28;20202;-64
2023/05/15 02:49:46;;;;;;;6.35;1.27;;;;;;;;;;5074334;28;19931;-64
2023/05/15 02:52:12;;;;;;;2.25;1.08;;;;;;;;;;5074076;28;20507;-64
2023/05/15 02:54:39;;;;;;;2.75;1.20;;;;;;;;;;5067474;28;20139;-65
2023/05/15 02:57:07;;;;;;;4.07;1.50;;;;;;;;;;5074296;28;20679;-64
2023/05/15 02:59:34;;;;;;;3.38;1.75;;;;;;;;;;5074227;28;20083;-64
2023/05/15 03:02:02;;;;;;;7.40;1.40;;;;;;;;;;5074093;28;20048;-64
2023/05/15 03:04:28;;;;;;;4.15;1.38;;;;;;;;;;5073544;28;20518;-64
2023/05/15 03:06:55;;;;;;;3.50;1.48;;;;;;;;;;5073862;28;20052;-64
2023/05/15 03:09:21;;;;;;;5.10;1.45;;;;;;;;;;5074125;28;20049;-64
2023/05/15 03:11:47;;;;;;;2.10;1.45;;;;;;;;;;5073933;28;20072;-64
2023/05/15 03:14:14;;;;;;;3.20;1.30;;;;;;;;;;5073108;28;20407;-65
2023/05/15 03:16:41;;;;;;;2.03;1.33;;;;;;;;;;5073928;28;20430;-65
2023/05/15 03:19:07;;;;;;;4.75;1.65;;;;;;;;;;5072347;28;20053;-65
2023/05/15 03:21:34;;;;;;;3.40;1.50;;;;;;;;;;5073795;28;20056;-64
2023/05/15 03:24:00;;;;;;;4.25;1.60;;;;;;;;;;5073757;28;20087;-65
2023/05/15 03:26:27;;;;;;;3.00;1.33;;;;;;;;;;5073680;28;20057;-65
2023/05/15 03:28:53;;;;;;;3.30;1.65;;;;;;;;;;5073947;28;20057;-65
2023/05/15 03:31:20;;;;;;;3.50;1.70;;;;;;;;;;5073412;28;20505;-66
2023/05/15 03:33:48;;;;;;;3.38;1.50;;;;;;;;;;5073233;28;20049;-65
2023/05/15 03:36:15;;;;;;;3.80;1.52;;;;;;;;;;5073300;28;20128;-64
2023/05/15 03:38:43;;;;;;;6.63;1.38;;;;;;;;;;5073335;28;20048;-64
2023/05/15 03:41:09;;;;;;;3.60;1.63;;;;;;;;;;5073134;28;20519;-64
2023/05/15 03:43:35;;;;;;;2.97;1.30;;;;;;;;;;5073163;28;20045;-64
2023/05/15 03:46:02;;;;;;;5.72;1.60;;;;;;;;;;5073595;28;20497;-65
2023/05/15 03:48:28;;;;;;;4.38;1.20;;;;;;;;;;5073055;28;20111;-64
2023/05/15 03:50:55;;;;;;;3.95;1.50;;;;;;;;;;5072919;28;20492;-64
2023/05/15 03:53:21;;;;;;;5.20;1.75;;;;;;;;;;5072941;28;20052;-64
2023/05/15 03:55:48;;;;;;;3.15;1.42;;;;;;;;;;5072955;28;20120;-64
2023/05/15 03:58:14;;;;;;;2.83;1.33;;;;;;;;;;5072873;28;20059;-64
2023/05/15 04:00:40;;;;;;;2.63;1.33;;;;;;;;;;5072592;28;20486;-65
2023/05/15 04:03:07;;;;;;;3.75;1.30;;;;;;;;;;5072595;28;20515;-64
2023/05/15 04:05:33;;;;;;;4.25;1.30;;;;;;;;;;5059727;28;20061;-65
2023/05/15 04:08:00;;;;;;;5.53;1.13;;;;;;;;;;5071772;28;20048;-65
2023/05/15 04:10:26;;;;;;;3.38;1.40;;;;;;;;;;5072625;28;20091;-65
2023/05/15 04:12:53;;;;;;;4.25;1.40;;;;;;;;;;5072789;28;20048;-65
2023/05/15 04:15:20;;;;;;;4.40;1.15;;;;;;;;;;5072431;28;20048;-65
2023/05/15 04:17:47;;;;;;;;;;;;;;;;;;5071831;28;20189;-65
2023/05/15 04:20:14;;;;;;;2.90;0.90;;;;;;;;;;5072679;28;19924;-64
2023/05/15 04:22:41;;;;;;;3.28;1.08;;;;;;;;;;5072571;28;20124;-64
2023/05/15 04:25:08;;;;;;;3.20;1.30;;;;;;;;;;5072438;28;20059;-64
2023/05/15 04:27:35;;;;;;;5.50;1.33;;;;;;;;;;5072311;28;20044;-64
2023/05/15 04:30:02;;;;;;;3.83;1.58;;;;;;;;;;5070834;28;20484;-64
2023/05/15 04:32:29;;;;;;;4.00;1.17;;;;;;;;;;5072219;28;20041;-64
2023/05/15 04:34:55;;;;;;;2.83;1.00;;;;;;;;;;5072050;28;20289;-64
2023/05/15 04:37:22;;;;;;;2.88;1.10;;;;;;;;;;5072370;28;20385;-64
2023/05/15 04:39:48;;;;;;;2.55;1.00;;;;;;;;;;5071027;28;20132;-64
2023/05/15 04:42:15;;;;;;;2.28;1.15;;;;;;;;;;5072055;28;20045;-64
2023/05/15 04:44:41;;;;;;;5.65;1.20;;;;;;;;;;5060451;28;20490;-65
2023/05/15 04:47:08;;;;;;;5.97;1.55;;;;;;;;;;5069655;28;20051;-64
2023/05/15 04:49:34;;;;;;;3.10;1.00;;;;;;;;;;5072066;28;20049;-64
2023/05/15 04:52:00;;;;;;;3.88;0.93;;;;;;;;;;5071929;28;20044;-65
2023/05/15 04:54:27;;;;;;;3.85;0.95;;;;;;;;;;5071990;28;20075;-64
2023/05/15 04:56:53;;;;;;;2.90;0.90;;;;;;;;;;5072093;28;20045;-64
2023/05/15 04:59:19;;;;;;;6.13;1.30;;;;;;;;;;5072343;28;20155;-64
2023/05/15 05:01:46;;;;;;;2.83;0.88;;;;;;;;;;5071668;28;20049;-64
2023/05/15 05:04:13;;;;;;;3.20;1.15;;;;;;;;;;5071648;28;20447;-65
2023/05/15 05:06:40;;;;;;;4.68;1.00;;;;;;;;;;5071837;28;20044;-64
2023/05/15 05:09:06;;;;;;;4.00;1.00;;;;;;;;;;5071775;28;20096;-64
2023/05/15 05:11:32;;;;;;;3.10;0.80;;;;;;;;;;5071717;28;20097;-64
2023/05/15 05:13:59;;;;;;;3.72;1.50;;;;;;;;;;5071928;28;20054;-64
2023/05/15 05:16:25;;;;;;;5.10;1.00;;;;;;;;;;5071554;28;20049;-64
2023/05/15 05:18:52;;;;;;;3.42;1.10;;;;;;;;;;5071867;28;20071;-64
2023/05/15 05:21:18;;;;;;;3.33;1.02;;;;;;;;;;5071660;28;20052;-64
2023/05/15 05:23:46;;;;;;;3.35;1.00;;;;;;;;;;5071818;28;20404;-64
2023/05/15 05:26:12;;;;;;;2.90;1.08;;;;;;;;;;5071362;28;20056;-64
2023/05/15 05:28:38;;;;;;;4.68;1.00;;;;;;;;;;5071732;28;20407;-64
2023/05/15 05:31:05;;;;;;;6.18;1.25;;;;;;;;;;5071778;28;20155;-64
2023/05/15 05:33:32;;;;;;;3.67;0.93;;;;;;;;;;5070249;28;20045;-64
2023/05/15 05:35:58;;;;;;;1.48;0.63;;;;;;;;;;5060484;28;20076;-64
2023/05/15 05:38:26;;;;;;;3.38;0.70;;;;;;;;;;5072435;28;20050;-64
2023/05/15 05:40:52;;;;;;;;;;;;;;;;;;5075809;28;20049;-65
2023/05/15 05:43:19;;;;;;;1.42;0.80;;;;;;;;;;5075579;28;19931;-64
2023/05/15 05:45:46;;;;;;;5.97;1.33;;;;;;;;;;5075726;28;20132;-65
2023/05/15 05:48:12;;;;;;;1.83;0.88;;;;;;;;;;5075356;28;20518;-64
2023/05/15 05:50:39;;;;;;;2.70;0.90;;;;;;;;;;5075250;28;20049;-64
2023/05/15 05:53:05;;;;;;;4.13;1.00;;;;;;;;;;5075317;28;20118;-64
2023/05/15 05:55:32;;;;;;;2.75;0.80;;;;;;;;;;5075435;28;20123;-64
2023/05/15 05:57:58;;;;;;;4.30;0.80;;;;;;;;;;5075381;28;20132;-64
2023/05/15 06:00:25;;;;;;;2.20;1.02;;;;;;;;;;5075015;28;20044;-64
2023/05/15 06:02:54;;;;;;;3.38;1.08;;;;;;;;;;5075075;28;20416;-64
2023/05/15 06:05:22;;;;;;;3.25;1.10;;;;;;;;;;5074854;28;20506;-64
2023/05/15 06:07:48;;;;;;;3.92;0.95;;;;;;;;;;5075164;28;20040;-64
2023/05/15 06:10:15;;;;;;;3.33;0.90;;;;;;;;;;5074950;28;20044;-64
2023/05/15 06:12:42;;;;;;;3.47;0.73;;;;;;;;;;5075092;28;20074;-64
2023/05/15 06:15:08;;;;;;;2.42;0.70;;;;;;;;;;5074823;28;20045;-65
2023/05/15 06:17:35;;;;;;;4.50;0.95;;;;;;;;;;5074785;28;20059;-65
2023/05/15 06:20:04;;;;;;;4.05;0.63;;;;;;;;;;5075038;28;20454;-64
2023/05/15 06:22:31;;;;;;;2.15;0.80;;;;;;;;;;5074566;28;20552;-64
2023/05/15 06:24:58;;;;;;;3.15;0.82;;;;;;;;;;5074626;28;20036;-65
2023/05/15 06:27:25;;;;;;;6.03;0.82;;;;;;;;;;5074917;28;20052;-64
2023/05/15 06:29:51;;;;;;;4.65;0.88;;;;;;;;;;5074793;28;20135;-65
2023/05/15 06:32:18;;;;;;;3.50;0.80;;;;;;;;;;5074832;28;20056;-65
2023/05/15 06:34:44;;;;;;;4.68;1.17;;;;;;;;;;5074428;28;20514;-65
2023/05/15 06:37:11;;;;;;;4.65;0.93;;;;;;;;;;5074413;28;20040;-65
2023/05/15 06:39:37;;;;;;;4.32;0.80;;;;;;;;;;5074590;28;20090;-65
2023/05/15 06:42:03;;;;;;;2.67;1.00;;;;;;;;;;5074507;28;20044;-65
2023/05/15 06:44:30;;;;;;;3.97;1.13;;;;;;;;;;5074293;28;20054;-65
2023/05/15 06:46:57;;;;;;;5.10;0.93;;;;;;;;;;5054535;28;20041;-64
2023/05/15 06:49:23;;;;;;;5.17;1.00;;;;;;;;;;5053122;28;20045;-64
2023/05/15 06:51:50;;;;;;;2.28;0.70;;;;;;;;;;5054085;28;20052;-64
2023/05/15 06:54:17;;;;;;;2.95;0.63;;;;;;;;;;5054314;28;20045;-64
2023/05/15 06:56:43;;;;;;;4.55;0.90;;;;;;;;;;5054107;28;20569;-64
2023/05/15 06:59:10;;;;;;;5.00;1.83;;;;;;;;;;5053881;28;20057;-69
2023/05/15 07:01:37;;;;;;;6.78;0.98;;;;;;;;;;5053406;28;20045;-67
2023/05/15 07:04:03;;;;;;;4.03;0.75;;;;;;;;;;5068043;28;20091;-68
2023/05/15 07:06:30;;;;;;;3.58;0.82;;;;;;;;;;5059503;28;20059;-65
2023/05/15 07:08:58;;;;;;;2.85;0.75;;;;;;;;;;5073810;28;20041;-64
2023/05/15 07:11:24;;;;;;;3.65;0.82;;;;;;;;;;5059344;28;20131;-62
2023/05/15 07:13:51;;;;;;;3.22;0.80;;;;;;;;;;5067188;28;20067;-65
2023/05/15 07:16:18;;;;;;;3.17;0.90;;;;;;;;;;5071724;28;20267;-66
2023/05/15 07:18:44;;;;;;;2.92;0.75;;;;;;;;;;5060575;28;20056;-65
2023/05/15 07:21:11;;;;;;;3.30;0.90;;;;;;;;;;5072888;28;20056;-65
2023/05/15 07:23:37;;;;;;;3.33;1.10;;;;;;;;;;5073402;28;20044;-65
2023/05/15 07:26:03;;;;;;;1.63;0.70;;;;;;;;;;5065501;28;20048;-64
2023/05/15 07:28:30;;;;;;;5.68;0.90;;;;;;;;;;5066609;28;20048;-64
2023/05/15 07:30:56;;;;;;;5.10;0.75;;;;;;;;;;5059002;28;20044;-64
2023/05/15 07:33:22;;;;;;;4.85;0.85;;;;;;;;;;5057593;28;20132;-64
2023/05/15 07:35:49;;;;;;;2.65;0.82;;;;;;;;;;5062032;28;20052;-64
2023/05/15 07:38:15;;;;;;;3.13;1.10;;;;;;;;;;5073450;28;20067;-64
2023/05/15 07:40:42;;;;;;;4.30;0.90;;;;;;;;;;5067015;28;20282;-64
2023/05/15 07:43:08;;;;;;;4.13;0.95;;;;;;;;;;5055137;28;20806;-64
2023/05/15 07:45:35;;;;;;;8.77;1.42;;;;;;;;;;5068472;28;20055;-64
2023/05/15 07:48:21;;;;;;;6.85;1.27;;;;;;;;;;5073066;28;20080;-64
2023/05/15 07:50:51;;;;;;;4.53;0.80;;;;;;;;;;5073096;28;20049;-64
2023/05/15 07:53:17;;;;;;;6.32;1.05;;;;;;;;;;5073299;28;20151;-64
2023/05/15 07:55:44;;;;;;;10.10;2.13;;;;;;;;;;5073166;28;20056;-67
2023/05/15 07:58:10;;;;;;;5.22;0.85;;;;;;;;;;5073262;28;20127;-66
2023/05/15 08:00:37;;;;;;;8.70;1.42;;;;;;;;;;5052564;28;20053;-66
2023/05/15 08:03:03;;;;;;;4.95;1.30;;;;;;;;;;5071254;28;20041;-66
2023/05/15 08:05:30;;;;;;;6.93;1.10;;;;;;;;;;5063364;28;20386;-66
2023/05/15 08:07:56;;;;;;;8.23;1.48;;;;;;;;;;5070579;28;20076;-65
2023/05/15 08:10:22;;;;;;;5.70;1.27;;;;;;;;;;5053797;28;20041;-65
2023/05/15 08:12:49;;;;;;;3.50;1.25;;;;;;;;;;5052050;28;20064;-65
2023/05/15 08:15:16;;;;;;;4.53;1.02;;;;;;;;;;5052129;28;20045;-65
2023/05/15 08:17:42;;;;;;;6.40;1.25;;;;;;;;;;5052113;28;20143;-66
2023/05/15 08:20:09;;;;;;;5.38;1.20;;;;;;;;;;5052117;28;20131;-65
2023/05/15 08:22:35;;;;;;;5.95;1.15;;;;;;;;;;5051473;28;20045;-66
2023/05/15 08:25:02;;;;;;;3.22;1.23;;;;;;;;;;5060030;28;20526;-65
2023/05/15 08:27:29;;;;;;;5.15;1.27;;;;;;;;;;5051974;28;20127;-66
2023/05/15 08:29:55;;;;;;;5.75;1.25;;;;;;;;;;5051678;28;20143;-65
2023/05/15 08:32:21;;;;;;;4.45;1.13;;;;;;;;;;5051790;28;20060;-66
2023/05/15 08:34:48;;;;;;;3.92;1.00;;;;;;;;;;5051921;28;20260;-66
2023/05/15 08:37:14;;;;;;;4.68;1.23;;;;;;;;;;5051675;28;20055;-66
2023/05/15 08:39:41;;;;;;;3.25;0.85;;;;;;;;;;5051828;28;20055;-65
2023/05/15 08:42:45;;;;;;;4.22;1.13;;;;;;;;;;5053804;28;20049;-66
2023/05/15 08:45:12;;;;;;;5.28;1.08;;;;;;;;;;5029251;28;20398;-66
2023/05/15 08:47:40;;;;;;;2.70;1.10;;;;;;;;;;5001669;28;20050;-66
2023/05/15 08:50:06;;;;;;;5.95;1.20;;;;;;;;;;5049540;28;20048;-66
2023/05/15 08:52:33;;;;;;;4.63;1.43;;;;;;;;;;5071645;28;20044;-65
2023/05/15 08:55:00;;;;;;;4.37;0.83;;;;;;;;;;5068599;28;20647;-66
2023/05/15 08:57:27;;;;;;;4.95;1.10;;;;;;;;;;5069811;28;20052;-65
2023/05/15 08:59:54;;;;;;;4.80;1.00;;;;;;;;;;5055728;28;20083;-65
2023/05/15 09:02:20;;;;;;;2.95;1.10;;;;;;;;;;5064855;28;20058;-65
2023/05/15 09:04:46;;;;;;;3.33;1.47;;;;;;;;;;5058507;28;20094;-66
2023/05/15 09:07:14;;;;;;;4.20;0.90;;;;;;;;;;5050846;28;20048;-66
2023/05/15 09:09:42;;;;;;;4.22;1.25;;;;;;;;;;5059971;28;20052;-67
2023/05/15 09:12:13;;;;;;;3.80;1.05;;;;;;;;;;5063461;28;20058;-66
2023/05/15 09:14:40;;;;;;;4.22;1.30;;;;;;;;;;5071219;28;20049;-66
2023/05/15 09:17:08;;;;;;;4.32;1.08;;;;;;;;;;5056922;28;20053;-65
2023/05/15 09:19:37;;;;;;;2.78;0.98;;;;;;;;;;5057668;28;20067;-67
2023/05/15 09:22:15;;;;;;;4.47;0.95;;;;;;;;;;5071161;28;20052;-67
2023/05/15 09:24:42;;;;;;;4.40;1.00;;;;;;;;;;5071064;28;20045;-66
2023/05/15 09:27:08;;;;;;;4.00;0.80;;;;;;;;;;5067364;28;20629;-67
2023/05/15 09:29:36;;;;;;;3.80;1.25;;;;;;;;;;5056390;28;20049;-67
2023/05/15 09:32:03;;;;;;;2.72;0.90;;;;;;;;;;5050863;28;20052;-66
2023/05/15 09:34:31;;;;;;;2.63;0.75;;;;;;;;;;5051103;28;20049;-66
2023/05/15 09:36:57;;;;;;;5.30;0.80;;;;;;;;;;5050903;28;20389;-66
2023/05/15 09:39:24;;;;;;;4.82;1.15;;;;;;;;;;5050956;28;20045;-66
2023/05/15 09:41:51;;;;;;;4.55;0.95;;;;;;;;;;5050743;28;20447;-67
2023/05/15 09:44:26;;;;;;;3.17;0.70;;;;;;;;;;5050752;28;20048;-66
2023/05/15 09:46:53;;;;;;;1.67;0.77;;;;;;;;;;5050973;28;20056;-66
2023/05/15 09:49:20;;;;;;;2.72;0.70;;;;;;;;;;5050782;28;20496;-66
2023/05/15 09:51:47;;;;;;;4.95;0.70;;;;;;;;;;5050944;28;20079;-66
2023/05/15 09:54:17;;;;;;;3.88;0.70;;;;;;;;;;5050754;28;20055;-66
2023/05/15 09:56:45;;;;;;;3.10;0.70;;;;;;;;;;5050952;28;20059;-66
2023/05/15 09:59:14;;;;;;;1.15;0.60;;;;;;;;;;5050616;28;20484;-66
2023/05/15 10:01:46;;;;;;;2.20;0.52;;;;;;;;;;5050754;28;20049;-66
2023/05/15 10:04:13;;;;;;;4.78;0.70;;;;;;;;;;5064384;28;20373;-67
2023/05/15 10:06:44;;;;;;;1.83;0.70;;;;;;;;;;5070601;28;20136;-66
2023/05/15 10:09:11;;;;;;;3.25;0.73;;;;;;;;;;5070851;28;20047;-66
2023/05/15 10:11:40;;;;;;;2.72;0.80;;;;;;;;;;5070658;28;20091;-66
2023/05/15 10:14:08;;;;;;;2.92;1.00;;;;;;;;;;5070701;28;20123;-67
2023/05/15 10:16:35;;;;;;;3.60;0.70;;;;;;;;;;5070888;28;20128;-67
2023/05/15 10:19:01;;;;;;;;;;;;;;;;;;5071229;28;20044;-66
2023/05/15 10:21:31;;;;;;;1.55;0.60;;;;;;;;;;5070555;28;19924;-66
2023/05/15 10:23:59;;;;;;;4.63;0.80;;;;;;;;;;5067778;28;20041;-67
2023/05/15 10:26:29;;;;;;;4.38;0.70;;;;;;;;;;5065325;28;20060;-66
2023/05/15 10:28:56;;;;;;;2.70;0.65;;;;;;;;;;5074431;28;20127;-67
2023/05/15 10:31:23;;;;;;;2.00;0.80;;;;;;;;;;5074297;28;20480;-66
2023/05/15 10:33:50;;;;;;;;;;;;;;;;;;5074718;28;20060;-66
2023/05/15 10:36:18;;;;;;;5.50;1.10;;;;;;;;;;5072939;28;20023;-65
2023/05/15 10:38:45;;;;;;;3.58;0.70;;;;;;;;;;5073853;28;20052;-64
2023/05/15 10:41:11;;;;;;;;;;;;;;;;;;5072317;28;20546;-65
2023/05/15 10:43:43;;;;;;;2.15;0.77;;;;;;;;;;5062296;28;20011;-65
2023/05/15 10:46:09;;;;;;;2.00;0.65;;;;;;;;;;5067519;28;20128;-65
2023/05/15 10:48:36;;;;;;;1.75;0.70;;;;;;;;;;5053801;28;20053;-65
2023/05/15 10:51:02;;;;;;;1.50;0.47;;;;;;;;;;5059397;28;20054;-65
2023/05/15 10:53:30;;;;;;;2.92;0.50;;;;;;;;;;5072963;28;20099;-66
2023/05/15 10:55:56;;;;;;;2.05;0.40;;;;;;;;;;5071993;28;20049;-66
2023/05/15 10:58:23;;;;;;;2.95;0.50;;;;;;;;;;5073797;28;20056;-66
2023/05/15 11:00:50;;;;;;;2.15;0.70;;;;;;;;;;5073587;28;20135;-66
2023/05/15 11:03:16;;;;;;;;;;;;;;;;;;5055325;28;20049;-66
2023/05/15 11:06:03;;;;;;;1.75;0.52;;;;;;;;;;5065324;28;19931;-66
2023/05/15 11:08:29;;;;;;;1.95;0.60;;;;;;;;;;5066196;28;20059;-66
2023/05/15 11:10:56;;;;;;;1.50;0.50;;;;;;;;;;5073343;28;20056;-67
2023/05/15 11:13:22;;;;;;;3.20;0.70;;;;;;;;;;5073535;28;20078;-68
2023/05/15 11:15:48;;;;;;;2.50;0.60;;;;;;;;;;5073201;28;20518;-67
2023/05/15 11:18:15;;;;;;;1.67;0.70;;;;;;;;;;5072982;28;20052;-66
2023/05/15 11:21:01;;;;;;;1.55;0.52;;;;;;;;;;5073122;28;20055;-67
2023/05/15 11:23:28;;;;;;;3.72;0.50;;;;;;;;;;5072927;28;20124;-67
2023/05/15 11:25:55;;;;;;;2.25;0.73;;;;;;;;;;5073017;28;20597;-66
2023/05/15 11:28:23;;;;;;;2.03;0.55;;;;;;;;;;5058584;28;20041;-67
2023/05/15 11:30:50;;;;;;;2.13;0.45;;;;;;;;;;5072923;28;20048;-67
2023/05/15 11:33:18;;;;;;;2.83;0.40;;;;;;;;;;5072931;28;20388;-67
2023/05/15 11:35:46;;;;;;;2.22;0.63;;;;;;;;;;5072004;28;20492;-67
2023/05/15 11:38:16;;;;;;;2.05;0.45;;;;;;;;;;5072902;28;20059;-67
2023/05/15 11:40:46;;;;;;;2.03;0.50;;;;;;;;;;5069690;28;20175;-66
2023/05/15 11:43:17;;;;;;;2.38;0.60;;;;;;;;;;5052569;28;20041;-67
2023/05/15 11:45:45;;;;;;;2.17;0.35;;;;;;;;;;5044178;28;20382;-66
2023/05/15 11:48:12;;;;;;;2.35;0.68;;;;;;;;;;5066637;28;20072;-67
2023/05/15 11:50:39;;;;;;;2.60;0.50;;;;;;;;;;5068137;28;20044;-66
2023/05/15 11:53:06;;;;;;;2.35;0.60;;;;;;;;;;5072752;28;20106;-67
2023/05/15 11:55:35;;;;;;;1.75;0.63;;;;;;;;;;5067394;28;20131;-67
2023/05/15 11:58:02;;;;;;;2.22;0.60;;;;;;;;;;5071846;28;20512;-67
2023/05/15 12:00:29;;;;;;;1.38;0.43;;;;;;;;;;5064960;28;20052;-68
2023/05/15 12:02:56;;;;;;;2.35;0.50;;;;;;;;;;5057829;28;20135;-68
2023/05/15 12:05:22;;;;;;;1.85;0.60;;;;;;;;;;5052878;28;20409;-67
2023/05/15 12:07:49;;;;;;;3.05;0.60;;;;;;;;;;5069704;28;20115;-67
2023/05/15 12:10:15;;;;;;;;;;;;;;;;;;5063049;28;20059;-67
2023/05/15 12:12:41;;;;;;;;;;;;;;;;;;5068167;28;20260;-66
2023/05/15 12:15:09;;;;;;;2.92;0.60;;;;;;;;;;5070617;28;19934;-67
2023/05/15 12:17:36;;;;;;;2.92;0.50;;;;;;;;;;5066304;28;20052;-67
2023/05/15 12:20:03;;;;;;;1.92;0.40;;;;;;;;;;5051536;28;20049;-67
2023/05/15 12:22:34;;;;;;;3.30;0.55;;;;;;;;;;5056750;28;20480;-67
2023/05/15 12:25:01;;;;;;;1.20;0.40;;;;;;;;;;5063830;28;20132;-67
2023/05/15 12:27:27;;;;;;;2.08;0.40;;;;;;;;;;5069471;28;20120;-65
2023/05/15 12:29:54;;;;;;;2.63;0.50;;;;;;;;;;5064220;28;20053;-65
2023/05/15 12:32:20;;;;;;;2.00;0.60;;;;;;;;;;5067856;28;20135;-65
2023/05/15 12:34:47;;;;;;;1.88;0.70;;;;;;;;;;5060651;28;20645;-65
2023/05/15 12:37:13;;;;;;;1.40;0.50;;;;;;;;;;5059364;28;20127;-65
2023/05/15 12:40:10;;;;;;;1.98;0.40;;;;;;;;;;5062640;28;20052;-64
2023/05/15 12:42:38;;;;;;;2.75;0.60;;;;;;;;;;5047149;28;20087;-64
2023/05/15 12:45:10;;;;;;;2.20;0.52;;;;;;;;;;5041758;28;20494;-64
2023/05/15 12:47:37;;;;;;;2.78;0.60;;;;;;;;;;5051494;28;20080;-64
2023/05/15 12:50:11;;;;;;;1.35;0.60;;;;;;;;;;5051219;28;20037;-64
2023/05/15 12:52:38;;;;;;;2.38;0.55;;;;;;;;;;5051689;28;20059;-64
2023/05/15 12:55:05;;;;;;;3.33;0.70;;;;;;;;;;5049815;28;20130;-64
2023/05/15 12:57:32;;;;;;;;;;;;;;;;;;5052037;28;20070;-64
2023/05/15 12:59:58;;;;;;;2.30;0.68;;;;;;;;;;5051168;28;20439;-64
2023/05/15 13:02:25;;;;;;;5.00;0.75;;;;;;;;;;5050870;28;20389;-65
2023/05/15 13:04:51;;;;;;;;;;;;;;;;;;5051493;28;20048;-65
2023/05/15 13:07:17;;;;;;;2.55;0.45;;;;;;;;;;5051339;28;19998;-66
2023/05/15 13:09:46;;;;;;;1.17;0.60;;;;;;;;;;5045906;28;20123;-65
2023/05/15 13:12:12;;;;;;;1.27;0.40;;;;;;;;;;5042626;28;20051;-66
2023/05/15 13:14:40;;;;;;;2.25;0.50;;;;;;;;;;5051047;28;20049;-66
2023/05/15 13:17:07;;;;;;;2.20;0.30;;;;;;;;;;5051263;28;20135;-65
2023/05/15 13:19:33;;;;;;;1.13;0.57;;;;;;;;;;5051180;28;20091;-66
2023/05/15 13:22:00;;;;;;;0.98;0.30;;;;;;;;;;5051175;28;20079;-65
2023/05/15 13:24:26;;;;;;;2.60;0.70;;;;;;;;;;5051063;28;20055;-65
2023/05/15 13:26:52;;;;;;;2.30;0.40;;;;;;;;;;5041662;28;20053;-65
2023/05/15 13:29:19;;;;;;;;;;;;;;;;;;5046927;28;20489;-65
2023/05/15 13:31:45;;;;;;;2.22;0.47;;;;;;;;;;5050788;28;19924;-65
2023/05/15 13:34:12;;;;;;;1.83;0.50;;;;;;;;;;5051109;28;20447;-66
2023/05/15 13:36:38;;;;;;;1.50;0.35;;;;;;;;;;5050901;28;20132;-65
2023/05/15 13:39:05;;;;;;;;;;;;;;;;;;5051541;28;20464;-65
2023/05/15 13:41:31;;;;;;;3.05;0.68;;;;;;;;;;5042870;28;19983;-65
2023/05/15 13:43:58;;;;;;;2.35;0.50;;;;;;;;;;5056863;28;20399;-66
2023/05/15 13:46:25;;;;;;;2.03;0.32;;;;;;;;;;5070993;28;20045;-66
2023/05/15 13:48:51;;;;;;;1.67;0.40;;;;;;;;;;5070810;28;20622;-66
2023/05/15 13:51:17;;;;;;;3.03;0.60;;;;;;;;;;5070670;28;20044;-66
2023/05/15 13:53:44;;;;;;;1.48;0.32;;;;;;;;;;5068788;28;20048;-66
2023/05/15 13:56:10;;;;;;;;;;;;;;;;;;5071079;28;20055;-65
2023/05/15 13:58:36;;;;;;;1.00;0.38;;;;;;;;;;5062618;28;19928;-66
2023/05/15 14:01:05;;;;;;;3.10;0.50;;;;;;;;;;5064923;28;20045;-66
2023/05/15 14:03:32;;;;;;;1.08;0.38;;;;;;;;;;5069306;28;20102;-66
2023/05/15 14:05:59;;;;;;;0.60;0.30;;;;;;;;;;5054312;28;20048;-66
2023/05/15 14:08:25;;;;;;;1.45;0.40;;;;;;;;;;5068645;28;20522;-66
2023/05/15 14:10:52;;;;;;;3.25;0.40;;;;;;;;;;5057480;28;20053;-64
2023/05/15 14:13:18;;;;;;;1.40;0.50;;;;;;;;;;5062839;28;20131;-65
2023/05/15 14:15:44;;;;;;;2.55;0.40;;;;;;;;;;5069387;28;20519;-65
2023/05/15 14:18:11;;;;;;;;;;;;;;;;;;5075148;28;20554;-65
2023/05/15 14:20:37;;;;;;;1.77;0.30;;;;;;;;;;5070519;28;19920;-66
2023/05/15 14:23:03;;;;;;;;;;;;;;;;;;5075426;28;20049;-65
2023/05/15 14:25:30;;;;;;;1.83;0.57;;;;;;;;;;5068778;28;19931;-64
2023/05/15 14:27:56;;;;;;;;;;;;;;;;;;5074230;28;20052;-65
2023/05/15 14:30:22;;;;;;;1.23;0.57;;;;;;;;;;5069665;28;19930;-65
2023/05/15 14:32:49;;;;;;;0.80;0.40;;;;;;;;;;5068974;28;20574;-65
2023/05/15 14:35:16;;;;;;;1.10;0.40;;;;;;;;;;5071919;28;20441;-65
2023/05/15 14:37:42;;;;;;;1.55;0.50;;;;;;;;;;5056030;28;20048;-65
2023/05/15 14:40:09;;;;;;;1.75;0.50;;;;;;;;;;5071307;28;20547;-65
2023/05/15 14:42:35;;;;;;;1.55;0.40;;;;;;;;;;5053930;28;20252;-65
2023/05/15 14:45:02;;;;;;;1.52;0.40;;;;;;;;;;5065049;28;20575;-65
2023/05/15 14:47:28;;;;;;;2.30;0.40;;;;;;;;;;5057691;28;20527;-65
2023/05/15 14:49:55;;;;;;;3.88;0.52;;;;;;;;;;5059711;28;20071;-65